Řízení letového provozu České republiky  
Aktualizace dat:  27.02.2020 00:38:25 UTC English version
   METEO Zobrazení stránky:  27.02.2020 00:38:54 UTC  
vysvětlivky
METAR EDDB 270020Z 27011KT 9999 BKN011 03/01 Q1001 NOSIG=
METAR EDDC 270020Z 27009KT 220V310 9999 -RA BKN013 BKN029 02/00 Q1002=
METAR EDDE 270020Z 25012KT 9999 FEW013 SCT020CB 01/M01 Q1004=
METAR EDDF 270020Z 22011KT 9999 FEW026 04/M01 Q1008 NOSIG=
METAR EDDM 270020Z 26013KT 9999 FEW020 01/M02 Q1008 NOSIG=
METAR EDDN 270020Z 25010KT 9999 BKN020 02/M01 Q1007 R28/190094=
METAR EDDP 270020Z 25013KT 9999 FEW013 BKN035 BKN048 02/00 Q1003 NOSIG=
METAR EDDT 270020Z 27009KT 9999 -DZ FEW007 BKN008 02/01 Q1001=
METAR EDQM NIL
METAR EPBY 270030Z 25012KT 9999 FEW009 SCT011 BKN014 02/00 Q0996=
METAR EPGD 270030Z 27009KT 9999 -SHSN FEW010TCU BKN012 00/M01 Q0993=
METAR EPKK 270030Z 22011KT 9999 BKN033 02/M02 Q1000=
METAR EPKT 270030Z 28014KT 9999 FEW010 00/M02 Q0999=
METAR EPLL 270030Z 27013KT 7000 OVC005 01/00 Q0998=
METAR EPPO 270030Z 27012KT 9999 BKN011 03/01 Q0998=
METAR EPRZ 270030Z 25005KT CAVOK 00/M02 Q0999=
METAR EPWA 270030Z 27008KT 240V300 9999 -RA BKN004 BKN011 01/00 Q0997 TEMPO BKN005=
METAR EPWR 270030Z 29012KT 9999 -SHRA FEW007 SCT011CB BKN015 03/01 Q1001=
METAR LHBP 270030Z 30010KT CAVOK 03/M01 Q1002 NOSIG=
METAR LHSM 270015Z AUTO 27004KT 9000 NSC 01/00 Q1004=
METAR LKBC 270030Z AUTO 25009KT 9999 FEW024 BKN057 01/M02 Q1004=
METAR LKCV 270030Z 25011KT 9999 SCT042 BKN048 03/M01 Q1003 NOSIG RMK BLU BLU=
METAR LKKB 270030Z 24013KT CAVOK 02/M02 Q1002 RMK BLU=
METAR LKKU NIL
METAR LKKV 270000Z 26011KT 230V290 9999 BKN015 M00/M02 Q1002 RMK REG QNH 0999=
METAR LKLN 270030Z AUTO 24007KT 220V290 9999 FEW041 SCT048 OVC054 02/M02 Q1005=
METAR LKMT 270030Z 21010KT 9999 FEW043 01/M02 Q1002 NOSIG RMK REG QNH 0999=
METAR LKNA 270030Z 27011KT CAVOK 00/M03 Q1002 RMK BLU=
METAR LKPD 270030Z 25009KT CAVOK 02/M01 Q1003 RMK BLU=
METAR LKPJ 270030Z AUTO 28010KT 9999 FEW026 SCT045 02/M02 Q1002=
METAR LKPR 270030Z 24015KT 9999 -SN FEW022 SCT035 01/M01 Q1003 NOSIG RMK REG QNH 0999=
METAR LKTB 270030Z 29003KT CAVOK 02/M02 Q1003 NOSIG RMK REG QNH 0999=
METAR LKVO NIL
METAR LOWI 270020Z AUTO 04003KT 010V070 9999 FEW030 BKN050 00/M04 Q1009=
METAR LOWL 270020Z AUTO 25013KT 9999 FEW019 SCT022 BKN026 02/M01 Q1007=
METAR LOWS 270020Z AUTO 29007KT 250V330 9999 FEW017 SCT036 BKN070 02/M03 Q1009=
METAR LOWW 270020Z 29014KT CAVOK 04/M02 Q1004 NOSIG=
METAR LZIB 270030Z VRB04KT 9999 SCT026 04/M01 Q1003=
METAR LZKZ 270030Z 01005KT CAVOK 04/M03 Q0999=
METAR LZMC NIL
METAR LZPP 270030Z AUTO 30004KT 250V340 9999 FEW025/// OVC034/// 03/M01 Q1003=
METAR LZSL 270030Z 21005KT 190V250 9999 FEW042 M00/M03 Q1000=
METAR LZTT 270030Z 26012KT 9999 FEW026 M01/M06 Q0998=
METAR LZZI 270030Z VRB04KT 9999 BKN034 02/M03 Q1001=